Time;durP1;ratioP1;P1;durP2;ratioP2;P2;SDS_P1;SDS_P2;PMS_P1;PMS_P2;Temp;Humidity;BMP_temperature;BMP_pressure;BME280_temperature;BME280_humidity;BME280_pressure;Samples;Min_cycle;Max_cycle;Signal;HPM_P1;HPM_P2
2024/03/20 00:01:18;;;;;;;10.38;6.32;;;;;;;11.29;100.00;101796.94;5247312;28;20045;-80
2024/03/20 00:03:50;;;;;;;9.68;6.20;;;;;;;11.23;100.00;101793.00;5245558;28;20044;-81
2024/03/20 00:06:23;;;;;;;8.23;5.65;;;;;;;11.20;100.00;101793.22;5246577;28;20040;-80
2024/03/20 00:08:54;;;;;;;8.73;6.47;;;;;;;11.23;100.00;101798.25;5244663;28;20033;-80
2024/03/20 00:11:27;;;;;;;8.68;5.78;;;;;;;11.17;100.00;101798.66;5228162;28;20049;-81
2024/03/20 00:13:59;;;;;;;9.00;5.93;;;;;;;11.20;100.00;101803.69;5246655;28;20033;-81
2024/03/20 00:16:31;;;;;;;7.63;5.95;;;;;;;11.17;100.00;101803.91;5246042;28;20056;-81
2024/03/20 00:19:03;;;;;;;8.93;6.60;;;;;;;11.20;100.00;101790.59;5247044;28;20029;-81
2024/03/20 00:21:35;;;;;;;7.77;5.47;;;;;;;11.13;100.00;101792.81;5246401;28;20038;-80
2024/03/20 00:24:07;;;;;;;9.10;6.70;;;;;;;11.06;100.00;101783.72;5244263;28;20294;-80
2024/03/20 00:26:39;;;;;;;11.18;6.53;;;;;;;11.06;100.00;101788.13;5247598;28;20725;-80
2024/03/20 00:29:11;;;;;;;11.63;6.13;;;;;;;11.02;100.00;101795.34;5230615;28;20052;-81
2024/03/20 00:31:43;;;;;;;10.73;6.03;;;;;;;10.97;100.00;101789.63;5250986;28;20035;-81
2024/03/20 00:34:17;;;;;;;9.80;5.55;;;;;;;11.02;100.00;101790.13;5247612;28;20029;-81
2024/03/20 00:36:49;;;;;;;7.50;5.80;;;;;;;10.99;100.00;101792.16;5230209;28;20044;-81
2024/03/20 00:39:21;;;;;;;12.05;6.47;;;;;;;10.94;100.00;101784.59;5248704;28;20029;-81
2024/03/20 00:41:53;;;;;;;9.00;6.20;;;;;;;10.99;100.00;101794.78;5250873;28;20029;-81
2024/03/20 00:44:25;;;;;;;8.70;5.90;;;;;;;10.93;100.00;101793.41;5231127;28;20439;-81
2024/03/20 00:46:57;;;;;;;7.70;5.13;;;;;;;10.93;100.00;101788.16;5249710;28;20043;-81
2024/03/20 00:49:29;;;;;;;7.47;5.55;;;;;;;10.86;100.00;101781.69;5248567;28;20124;-81
2024/03/20 00:52:01;;;;;;;6.20;5.28;;;;;;;10.89;100.00;101790.16;5249800;28;20029;-81
2024/03/20 00:54:33;;;;;;;9.15;6.00;;;;;;;10.92;100.00;101794.38;5251332;28;20068;-81
2024/03/20 00:57:05;;;;;;;6.03;5.13;;;;;;;10.88;100.00;101795.53;5248428;28;20037;-81
2024/03/20 00:59:37;;;;;;;7.88;5.45;;;;;;;10.82;100.00;101788.91;5248577;28;20406;-81
2024/03/20 01:02:09;;;;;;;7.07;4.70;;;;;;;10.89;100.00;101792.78;5232099;28;20048;-81
2024/03/20 01:04:41;;;;;;;7.20;5.10;;;;;;;10.76;100.00;101781.50;5229317;28;20037;-81
2024/03/20 01:07:12;;;;;;;7.78;5.00;;;;;;;10.76;100.00;101788.50;5249758;28;20044;-81
2024/03/20 01:09:44;;;;;;;7.88;4.95;;;;;;;10.71;100.00;101783.59;5228627;28;20063;-81
2024/03/20 01:12:16;;;;;;;7.95;5.43;;;;;;;10.64;100.00;101779.72;5252528;28;20631;-81
2024/03/20 01:14:48;;;;;;;7.90;5.20;;;;;;;10.62;100.00;101777.22;5251000;28;20063;-81
2024/03/20 01:17:20;;;;;;;7.82;4.93;;;;;;;10.63;100.00;101781.50;5230409;28;20639;-81
2024/03/20 01:19:52;;;;;;;7.80;4.90;;;;;;;10.71;100.00;101786.22;5249526;28;20044;-81
2024/03/20 01:22:24;;;;;;;9.50;6.38;;;;;;;10.54;100.00;101778.72;5249075;28;20465;-81
2024/03/20 01:24:56;;;;;;;8.30;5.25;;;;;;;10.60;100.00;101781.72;5248642;28;20055;-81
2024/03/20 01:27:28;;;;;;;7.78;5.32;;;;;;;10.60;100.00;101786.13;5230362;28;20037;-81
2024/03/20 01:30:00;;;;;;;7.28;5.18;;;;;;;10.57;100.00;101783.72;5249164;28;20033;-81
2024/03/20 01:32:32;;;;;;;7.05;4.82;;;;;;;10.57;100.00;101781.97;5249528;28;20036;-81
2024/03/20 01:35:05;;;;;;;8.10;5.40;;;;;;;10.53;100.00;101784.88;5250349;28;20024;-81
2024/03/20 01:37:36;;;;;;;6.65;4.82;;;;;;;10.57;100.00;101781.09;5231730;28;20052;-81
2024/03/20 01:40:09;;;;;;;8.82;5.55;;;;;;;10.57;100.00;101775.84;5251184;28;20451;-81
2024/03/20 01:42:41;;;;;;;7.47;5.40;;;;;;;10.55;100.00;101768.13;5250401;28;20053;-81
2024/03/20 01:45:20;;;;;;;9.57;5.60;;;;;;;10.55;100.00;101775.16;5252891;28;20644;-81
2024/03/20 01:47:52;;;;;;;8.32;5.07;;;;;;;10.51;100.00;101765.81;5250185;28;20048;-81
2024/03/20 01:50:24;;;;;;;7.10;4.82;;;;;;;10.50;100.00;101772.84;5250049;28;20029;-81
2024/03/20 01:52:56;;;;;;;7.03;4.65;;;;;;;10.47;100.00;101778.28;5251122;28;20025;-81
2024/03/20 01:55:28;;;;;;;7.18;4.97;;;;;;;10.52;100.00;101773.56;5248972;28;20040;-81
2024/03/20 01:58:00;;;;;;;10.18;5.25;;;;;;;10.50;100.00;101761.53;5247647;28;20052;-81
2024/03/20 02:00:32;;;;;;;8.38;4.97;;;;;;;10.51;100.00;101771.06;5250299;28;20039;-80
2024/03/20 02:03:05;;;;;;;11.65;5.18;;;;;;;10.49;100.00;101768.53;5249210;28;20037;-81
2024/03/20 02:05:37;;;;;;;5.85;4.60;;;;;;;10.47;100.00;101763.41;5248510;28;20483;-81
2024/03/20 02:08:09;;;;;;;7.68;4.90;;;;;;;10.41;100.00;101761.22;5248328;28;20075;-81
2024/03/20 02:10:41;;;;;;;7.57;5.43;;;;;;;10.48;100.00;101757.22;5245244;28;20041;-81
2024/03/20 02:13:13;;;;;;;6.80;4.95;;;;;;;10.46;100.00;101753.06;5253151;28;20043;-81
2024/03/20 02:15:45;;;;;;;9.75;5.55;;;;;;;10.41;100.00;101750.72;5252565;28;20325;-81
2024/03/20 02:18:17;;;;;;;7.53;5.43;;;;;;;10.37;100.00;101751.88;5254021;28;20029;-81
2024/03/20 02:20:49;;;;;;;8.45;5.53;;;;;;;10.42;100.00;101755.03;5253556;28;20037;-81
2024/03/20 02:23:21;;;;;;;7.43;5.43;;;;;;;10.38;100.00;101744.88;5254214;28;20200;-81
2024/03/20 02:25:53;;;;;;;10.18;5.63;;;;;;;10.37;100.00;101762.38;5254135;28;20035;-81
2024/03/20 02:28:25;;;;;;;6.28;5.43;;;;;;;10.37;100.00;101762.38;5251678;28;20029;-81
2024/03/20 02:30:57;;;;;;;10.23;5.55;;;;;;;10.32;100.00;101753.16;5254451;28;20368;-81
2024/03/20 02:33:28;;;;;;;9.35;5.88;;;;;;;10.34;100.00;101757.38;5254299;28;20033;-81
2024/03/20 02:36:01;;;;;;;9.07;5.88;;;;;;;10.30;100.00;101762.91;5253926;28;20039;-81
2024/03/20 02:38:38;;;;;;;10.13;6.18;;;;;;;10.32;100.00;101754.00;5253898;28;20036;-81
2024/03/20 02:41:10;;;;;;;7.85;5.40;;;;;;;10.24;100.00;101757.13;5250794;28;20040;-81
2024/03/20 02:43:42;;;;;;;8.02;5.97;;;;;;;10.33;100.00;101763.53;5255025;28;20305;-81
2024/03/20 02:46:14;;;;;;;11.38;6.03;;;;;;;10.23;100.00;101746.75;5258032;28;20035;-81
2024/03/20 02:48:46;;;;;;;7.63;6.07;;;;;;;10.26;100.00;101751.78;5268713;28;20047;-81
2024/03/20 02:51:18;;;;;;;7.93;5.85;;;;;;;10.27;100.00;101755.28;5270349;28;20096;-81
2024/03/20 02:53:51;;;;;;;7.85;5.80;;;;;;;10.26;100.00;101753.56;5264017;28;20029;-81
2024/03/20 02:56:23;;;;;;;7.93;5.68;;;;;;;10.03;100.00;101728.94;5252902;28;20024;-81
2024/03/20 02:58:55;;;;;;;7.78;6.00;;;;;;;10.20;100.00;101752.19;5250082;28;20549;-81
2024/03/20 03:01:27;;;;;;;9.48;5.50;;;;;;;10.16;100.00;101748.13;5252823;28;20047;-81
2024/03/20 03:03:59;;;;;;;11.20;6.70;;;;;;;10.16;100.00;101746.34;5234371;28;20044;-81
2024/03/20 03:06:31;;;;;;;8.35;5.90;;;;;;;10.20;100.00;101744.34;5252148;28;20036;-81
2024/03/20 03:09:08;;;;;;;7.10;5.68;;;;;;;10.13;100.00;101743.09;5250293;28;20031;-81
2024/03/20 03:11:40;;;;;;;10.02;5.60;;;;;;;10.17;100.00;101748.00;5250663;28;20029;-81
2024/03/20 03:14:12;;;;;;;10.10;5.85;;;;;;;10.14;100.00;101757.84;5250430;28;20023;-80
2024/03/20 03:16:44;;;;;;;8.80;6.50;;;;;;;10.15;100.00;101752.53;5250849;28;20277;-81
2024/03/20 03:19:16;;;;;;;7.40;5.32;;;;;;;10.11;100.00;101755.44;5251511;28;20037;-81
2024/03/20 03:21:48;;;;;;;6.55;5.60;;;;;;;10.11;100.00;101758.88;5250150;28;20045;-81
2024/03/20 03:24:20;;;;;;;9.27;6.05;;;;;;;10.01;100.00;101734.28;5251510;28;20043;-81
2024/03/20 03:26:51;;;;;;;9.13;6.03;;;;;;;10.09;100.00;101744.25;5250750;28;20044;-81
2024/03/20 03:29:23;;;;;;;8.85;6.40;;;;;;;10.08;100.00;101751.25;5251070;28;20393;-81
2024/03/20 03:31:55;;;;;;;8.60;6.13;;;;;;;10.19;100.00;101750.50;5248326;28;20028;-81
2024/03/20 03:34:29;;;;;;;7.13;6.43;;;;;;;10.04;100.00;101743.69;5247214;28;20037;-81
2024/03/20 03:37:00;;;;;;;6.88;6.18;;;;;;;10.06;100.00;101747.91;5253037;28;20431;-81
2024/03/20 03:39:32;;;;;;;8.52;6.10;;;;;;;10.10;100.00;101751.97;5251923;28;20043;-81
2024/03/20 03:42:05;;;;;;;7.93;5.95;;;;;;;10.13;100.00;101746.53;5233441;28;20160;-81
2024/03/20 03:44:37;;;;;;;7.30;5.72;;;;;;;10.17;100.00;101741.94;5253952;28;20060;-81
2024/03/20 03:47:10;;;;;;;8.75;5.55;;;;;;;10.19;100.00;101754.00;5253900;28;20420;-81
2024/03/20 03:49:42;;;;;;;6.53;5.47;;;;;;;10.20;100.00;101752.19;5251210;28;20033;-81
2024/03/20 03:52:14;;;;;;;7.15;5.53;;;;;;;10.06;100.00;101758.38;5246879;28;20029;-80
2024/03/20 03:54:45;;;;;;;6.50;5.45;;;;;;;10.01;100.00;101759.63;5247574;28;20045;-80
2024/03/20 03:57:17;;;;;;;8.18;5.18;;;;;;;9.92;100.00;101743.59;5245653;28;20025;-81
2024/03/20 03:59:49;;;;;;;8.00;5.50;;;;;;;9.92;100.00;101750.59;5245189;28;20377;-80
2024/03/20 04:02:21;;;;;;;9.48;6.50;;;;;;;9.91;100.00;101760.25;5245698;28;20037;-81
2024/03/20 04:04:53;;;;;;;9.65;6.90;;;;;;;9.92;100.00;101759.28;5245147;28;20386;-80
2024/03/20 04:07:25;;;;;;;9.20;5.97;;;;;;;9.85;100.00;101750.19;5245858;28;20036;-80
2024/03/20 04:09:57;;;;;;;9.23;7.05;;;;;;;9.85;100.00;101747.59;5245090;28;20041;-81
2024/03/20 04:12:29;;;;;;;7.88;6.00;;;;;;;9.88;100.00;101749.97;5244570;28;20028;-81
2024/03/20 04:15:01;;;;;;;8.13;5.95;;;;;;;9.90;100.00;101758.56;5245021;28;20066;-81
2024/03/20 04:17:32;;;;;;;8.88;5.63;;;;;;;9.90;100.00;101755.94;5246207;28;20033;-80
2024/03/20 04:20:06;;;;;;;9.40;6.20;;;;;;;9.84;100.00;101758.13;5244711;28;20036;-80
2024/03/20 04:22:38;;;;;;;11.63;6.68;;;;;;;9.60;100.00;101711.75;5227694;28;20391;-80
2024/03/20 04:25:10;;;;;;;6.80;5.55;;;;;;;9.88;100.00;101754.38;5245830;28;20450;-80
2024/03/20 04:27:42;;;;;;;8.32;6.05;;;;;;;9.85;100.00;101755.44;5246044;28;20292;-80
2024/03/20 04:30:15;;;;;;;9.38;6.05;;;;;;;9.84;100.00;101752.91;5244579;28;20040;-80
2024/03/20 04:32:47;;;;;;;9.32;6.15;;;;;;;9.89;100.00;101753.44;5225502;28;20064;-80
2024/03/20 04:35:19;;;;;;;8.07;6.40;;;;;;;9.88;100.00;101754.38;5245516;28;20086;-81
2024/03/20 04:37:51;;;;;;;8.95;6.70;;;;;;;9.84;100.00;101756.34;5244187;28;20036;-80
2024/03/20 04:40:23;;;;;;;10.52;7.15;;;;;;;9.88;100.00;101754.38;5227326;28;20365;-81
2024/03/20 04:42:55;;;;;;;10.27;8.27;;;;;;;9.84;100.00;101743.28;5245232;28;20049;-80
2024/03/20 04:45:27;;;;;;;11.95;8.43;;;;;;;9.85;100.00;101751.97;5228099;28;20033;-81
2024/03/20 04:47:59;;;;;;;9.82;7.90;;;;;;;9.82;100.00;101753.03;5243711;28;20429;-80
2024/03/20 04:50:31;;;;;;;10.85;8.52;;;;;;;9.89;100.00;101761.31;5247773;28;20444;-81
2024/03/20 04:53:03;;;;;;;12.50;8.48;;;;;;;9.81;100.00;101751.34;5249341;28;20035;-81
2024/03/20 04:55:35;;;;;;;11.05;9.35;;;;;;;9.82;100.00;101749.56;5250070;28;20298;-81
2024/03/20 04:58:07;;;;;;;10.63;8.82;;;;;;;9.82;100.00;101755.63;5233210;28;20052;-81
2024/03/20 05:00:39;;;;;;;12.88;9.35;;;;;;;9.78;100.00;101754.16;5249703;28;20044;-81
2024/03/20 05:03:11;;;;;;;12.55;8.98;;;;;;;9.82;100.00;101755.63;5250099;28;20045;-81
2024/03/20 05:05:43;;;;;;;13.70;9.50;;;;;;;9.84;100.00;101755.53;5249640;28;20040;-80
2024/03/20 05:08:15;;;;;;;10.85;8.55;;;;;;;9.81;100.00;101751.34;5249491;28;20048;-81
2024/03/20 05:10:47;;;;;;;12.57;8.60;;;;;;;9.78;100.00;101764.63;5250031;28;20430;-81
2024/03/20 05:13:19;;;;;;;10.70;8.13;;;;;;;9.74;100.00;101753.53;5248524;28;20046;-81
2024/03/20 05:15:51;;;;;;;14.05;8.85;;;;;;;9.78;100.00;101762.03;5248789;28;20033;-81
2024/03/20 05:18:23;;;;;;;12.82;8.75;;;;;;;9.71;100.00;101756.34;5249504;28;20683;-81
2024/03/20 05:20:54;;;;;;;12.90;8.50;;;;;;;9.70;100.00;101746.00;5231989;28;20045;-80
2024/03/20 05:23:26;;;;;;;14.82;8.40;;;;;;;9.74;100.00;101752.69;5250345;28;20044;-81
2024/03/20 05:26:00;;;;;;;9.65;8.40;;;;;;;9.71;100.00;101748.50;5250538;28;20303;-81
2024/03/20 05:28:32;;;;;;;11.43;8.38;;;;;;;9.73;100.00;101749.22;5251046;28;20039;-81
2024/03/20 05:31:03;;;;;;;13.68;9.25;;;;;;;9.75;100.00;101751.75;5230645;28;20044;-81
2024/03/20 05:33:36;;;;;;;11.20;7.63;;;;;;;9.77;100.00;101755.09;5251436;28;20473;-81
2024/03/20 05:36:08;;;;;;;13.45;9.13;;;;;;;9.79;100.00;101753.22;5250995;28;20099;-81
2024/03/20 05:38:40;;;;;;;11.50;8.10;;;;;;;9.74;100.00;101750.91;5250703;28;20393;-81
2024/03/20 05:41:13;;;;;;;12.18;8.70;;;;;;;9.72;100.00;101749.34;5252054;28;20028;-81
2024/03/20 05:43:46;;;;;;;11.18;9.05;;;;;;;9.72;100.00;101738.88;5249459;28;20049;-81
2024/03/20 05:46:18;;;;;;;12.90;8.27;;;;;;;9.79;100.00;101753.22;5255567;28;20513;-81
2024/03/20 05:48:51;;;;;;;10.40;8.27;;;;;;;9.83;100.00;101759.09;5253861;28;20036;-81
2024/03/20 05:51:22;;;;;;;9.63;8.43;;;;;;;9.81;100.00;101761.81;5255520;28;20404;-81
2024/03/20 05:53:54;;;;;;;13.40;8.73;;;;;;;9.74;100.00;101758.78;5252786;28;20037;-81
2024/03/20 05:56:26;;;;;;;10.32;7.88;;;;;;;9.83;100.00;101765.16;5253775;28;20037;-80
2024/03/20 05:58:58;;;;;;;11.45;8.27;;;;;;;9.81;100.00;101768.81;5248270;28;20421;-79
2024/03/20 06:01:30;;;;;;;13.00;8.52;;;;;;;9.78;100.00;101766.41;5248131;28;20029;-79
2024/03/20 06:04:02;;;;;;;11.23;8.65;;;;;;;9.78;100.00;101767.25;5247617;28;20146;-79
2024/03/20 06:06:34;;;;;;;10.23;8.10;;;;;;;9.76;100.00;101758.66;5229353;28;20041;-79
2024/03/20 06:09:10;;;;;;;10.45;8.80;;;;;;;9.82;100.00;101765.28;5247564;28;20040;-79
2024/03/20 06:11:42;;;;;;;11.85;9.00;;;;;;;9.79;100.00;101763.69;5248366;28;20040;-79
2024/03/20 06:14:14;;;;;;;10.35;8.68;;;;;;;9.84;100.00;101768.59;5244549;28;20031;-79
2024/03/20 06:16:47;;;;;;;11.10;8.13;;;;;;;9.79;100.00;101762.84;5247175;28;20036;-79
2024/03/20 06:19:19;;;;;;;11.90;8.65;;;;;;;9.92;100.00;101761.06;5246384;28;20048;-79
2024/03/20 06:21:51;;;;;;;10.88;8.80;;;;;;;9.92;100.00;101772.38;5248546;28;20378;-79
2024/03/20 06:24:23;;;;;;;12.45;9.15;;;;;;;9.92;100.00;101771.53;5245054;28;20074;-79
2024/03/20 06:26:55;;;;;;;10.20;8.80;;;;;;;9.94;100.00;101773.13;5247218;28;20478;-79
2024/03/20 06:29:27;;;;;;;10.30;8.65;;;;;;;9.90;100.00;101765.59;5247420;28;20036;-79
2024/03/20 06:32:00;;;;;;;12.50;9.75;;;;;;;10.00;100.00;101777.13;5246790;28;20033;-79
2024/03/20 06:34:32;;;;;;;13.88;9.13;;;;;;;10.05;100.00;101777.66;5247742;28;20017;-79
2024/03/20 06:37:06;;;;;;;12.98;8.90;;;;;;;10.02;100.00;101779.63;5244539;28;20477;-79
2024/03/20 06:39:38;;;;;;;10.82;8.65;;;;;;;10.04;100.00;101781.22;5246087;28;20029;-79
2024/03/20 06:42:16;;;;;;;9.80;7.88;;;;;;;10.05;100.00;101782.03;5248640;28;20505;-79
2024/03/20 06:44:48;;;;;;;10.35;9.02;;;;;;;10.09;100.00;101789.59;5228510;28;20490;-79
2024/03/20 06:47:20;;;;;;;10.70;8.88;;;;;;;10.13;100.00;101795.44;5248249;28;20040;-79
2024/03/20 06:49:52;;;;;;;12.15;8.18;;;;;;;10.15;100.00;101797.03;5246761;28;20043;-79
2024/03/20 06:52:24;;;;;;;13.27;9.30;;;;;;;10.17;100.00;101794.31;5248369;28;20460;-79
2024/03/20 06:54:58;;;;;;;10.73;9.15;;;;;;;10.24;100.00;101798.19;5248145;28;20029;-79
2024/03/20 06:57:30;;;;;;;16.15;9.20;;;;;;;10.26;100.00;101793.69;5247563;28;20028;-79
2024/03/20 07:00:06;;;;;;;13.80;9.48;;;;;;;10.32;100.00;101801.16;5245753;28;20028;-79
2024/03/20 07:02:39;;;;;;;11.32;9.35;;;;;;;10.23;100.00;101775.56;5248941;28;20036;-79
2024/03/20 07:05:15;;;;;;;12.18;8.85;;;;;;;10.53;100.00;101808.47;5247507;28;20471;-79
2024/03/20 07:07:47;;;;;;;16.90;10.40;;;;;;;10.46;100.00;101800.22;5248588;28;20040;-79
2024/03/20 07:10:18;;;;;;;20.48;10.88;;;;;;;10.48;100.00;101800.91;5244898;28;20131;-79
2024/03/20 07:12:50;;;;;;;19.80;10.35;;;;;;;10.56;100.00;101792.53;5247705;28;20067;-78
2024/03/20 07:15:22;;;;;;;16.35;9.88;;;;;;;10.65;100.00;101797.97;5250385;28;20108;-80
2024/03/20 07:17:54;;;;;;;12.77;10.25;;;;;;;10.71;100.00;101791.47;5248455;28;20120;-80
2024/03/20 07:20:26;;;;;;;18.98;11.63;;;;;;;10.76;100.00;101793.75;5248948;28;20032;-80
2024/03/20 07:22:58;;;;;;;18.55;12.25;;;;;;;10.89;100.00;101797.19;5250719;28;20394;-80
2024/03/20 07:25:31;;;;;;;15.85;12.18;;;;;;;10.98;100.00;101803.56;5250783;28;20036;-80
2024/03/20 07:28:03;;;;;;;19.30;14.00;;;;;;;11.12;100.00;101811.28;5249417;28;20037;-80
2024/03/20 07:30:35;;;;;;;16.45;13.75;;;;;;;11.15;100.00;101809.28;5249079;28;20313;-80
2024/03/20 07:33:07;;;;;;;19.92;14.23;;;;;;;11.29;100.00;101804.81;5253844;28;20055;-80
2024/03/20 07:35:47;;;;;;;17.55;15.65;;;;;;;11.51;100.00;101804.09;5254569;28;20029;-80
2024/03/20 07:38:19;;;;;;;18.92;16.60;;;;;;;11.52;100.00;101803.16;5251370;28;20029;-80
2024/03/20 07:40:52;;;;;;;19.75;16.77;;;;;;;11.57;100.00;101804.47;5245882;28;20021;-80
2024/03/20 07:43:24;;;;;;;19.58;17.15;;;;;;;11.63;100.00;101801.41;5229181;28;20040;-80
2024/03/20 07:45:56;;;;;;;20.23;17.08;;;;;;;11.77;100.00;101807.41;5247079;28;20039;-80
2024/03/20 07:48:28;;;;;;;22.33;17.53;;;;;;;11.88;100.00;101797.81;5246645;28;20029;-80
2024/03/20 07:51:00;;;;;;;20.83;16.63;;;;;;;11.95;100.00;101811.34;5247312;28;20377;-80
2024/03/20 07:53:32;;;;;;;18.33;16.58;;;;;;;11.98;100.00;101818.16;5248520;28;20032;-80
2024/03/20 07:56:05;;;;;;;20.83;17.52;;;;;;;12.08;100.00;101813.84;5247221;28;20394;-80
2024/03/20 07:58:37;;;;;;;24.45;18.58;;;;;;;12.20;100.00;101812.94;5248038;28;20040;-80
2024/03/20 08:01:12;;;;;;;23.02;19.15;;;;;;;12.30;100.00;101810.44;5246665;28;20037;-80
2024/03/20 08:03:44;;;;;;;22.27;19.30;;;;;;;12.33;100.00;101812.84;5245297;28;20449;-80
2024/03/20 08:06:16;;;;;;;22.20;18.93;;;;;;;12.52;100.00;101820.97;5246697;28;20029;-80
2024/03/20 08:08:48;;;;;;;24.15;20.38;;;;;;;12.57;100.00;101818.81;5246062;28;20494;-80
2024/03/20 08:11:20;;;;;;;24.33;19.88;;;;;;;12.61;100.00;101809.75;5242369;28;20032;-80
2024/03/20 08:13:52;;;;;;;23.40;20.63;;;;;;;12.80;100.00;101829.31;5227778;28;20045;-80
2024/03/20 08:16:25;;;;;;;24.95;21.45;;;;;;;12.86;100.00;101816.53;5246333;28;20020;-80
2024/03/20 08:18:57;;;;;;;24.10;19.88;;;;;;;12.95;100.00;101827.28;5245375;28;20052;-80
2024/03/20 08:21:29;;;;;;;22.60;20.40;;;;;;;13.06;100.00;101822.00;5241913;28;20727;-80
2024/03/20 08:24:04;;;;;;;23.70;21.20;;;;;;;13.12;100.00;101832.88;5245231;28;20026;-80
2024/03/20 08:26:36;;;;;;;23.77;20.88;;;;;;;13.22;100.00;101829.50;5245700;28;20028;-80
2024/03/20 08:29:08;;;;;;;22.30;20.15;;;;;;;13.30;100.00;101828.00;5245496;28;20044;-80
2024/03/20 08:31:40;;;;;;;23.60;20.95;;;;;;;13.37;100.00;101829.16;5244539;28;20299;-81
2024/03/20 08:34:12;;;;;;;23.02;20.48;;;;;;;13.50;100.00;101828.16;5245943;28;20482;-80
2024/03/20 08:36:44;;;;;;;21.23;19.23;;;;;;;13.54;100.00;101830.41;5245777;28;20056;-80
2024/03/20 08:39:16;;;;;;;22.23;19.63;;;;;;;13.79;100.00;101833.69;5244902;28;20371;-81
2024/03/20 08:41:48;;;;;;;22.13;19.75;;;;;;;13.87;100.00;101829.44;5244530;28;20044;-80
2024/03/20 08:44:20;;;;;;;20.77;17.88;;;;;;;13.97;100.00;101828.66;5245398;28;20048;-80
2024/03/20 08:46:52;;;;;;;23.35;19.80;;;;;;;14.12;100.00;101824.75;5245905;28;20033;-81
2024/03/20 08:49:24;;;;;;;20.88;18.83;;;;;;;14.14;100.00;101833.38;5245277;28;20040;-81
2024/03/20 08:51:56;;;;;;;21.38;19.15;;;;;;;14.29;100.00;101833.88;5245238;28;20386;-81
2024/03/20 08:54:28;;;;;;;22.10;18.13;;;;;;;14.49;100.00;101835.66;5243574;28;20036;-81
2024/03/20 08:57:07;;;;;;;21.88;18.05;;;;;;;14.62;100.00;101838.06;5245770;28;20044;-81
2024/03/20 08:59:39;;;;;;;19.52;17.48;;;;;;;14.71;100.00;101842.56;5243635;28;20040;-81
2024/03/20 09:02:12;;;;;;;22.20;16.85;;;;;;;14.74;100.00;101834.41;5245598;28;20306;-81
2024/03/20 09:04:44;;;;;;;19.13;16.45;;;;;;;14.96;100.00;101843.91;5247555;28;20033;-81
2024/03/20 09:07:16;;;;;;;22.63;17.35;;;;;;;14.98;100.00;101827.94;5247227;28;20118;-81
2024/03/20 09:09:48;;;;;;;19.30;17.30;;;;;;;15.03;100.00;101831.00;5245178;28;20044;-81
2024/03/20 09:12:20;;;;;;;19.60;17.52;;;;;;;15.13;100.00;101823.97;5246164;28;20044;-81
2024/03/20 09:14:52;;;;;;;18.10;16.02;;;;;;;15.25;100.00;101835.22;5243028;28;20478;-81
2024/03/20 09:17:23;;;;;;;19.73;16.08;;;;;;;15.40;100.00;101828.56;5241709;28;20036;-81
2024/03/20 09:19:56;;;;;;;20.00;17.33;;;;;;;15.51;100.00;101822.34;5241478;28;20059;-81
2024/03/20 09:22:28;;;;;;;19.52;16.77;;;;;;;15.68;100.00;101826.09;5242417;28;20033;-81
2024/03/20 09:25:00;;;;;;;19.65;15.60;;;;;;;15.73;100.00;101810.69;5245088;28;20040;-81
2024/03/20 09:27:32;;;;;;;19.10;16.08;;;;;;;15.87;100.00;101819.97;5244884;28;20029;-81
2024/03/20 09:30:06;;;;;;;16.42;14.65;;;;;;;16.03;100.00;101820.25;5244872;28;20032;-81
2024/03/20 09:32:38;;;;;;;15.60;14.13;;;;;;;16.13;100.00;101817.56;5246841;28;20037;-81
2024/03/20 09:35:11;;;;;;;15.50;13.68;;;;;;;16.29;100.00;101823.13;5241550;28;20021;-81
2024/03/20 09:37:43;;;;;;;16.10;13.00;;;;;;;16.40;100.00;101808.88;5246837;28;20037;-81
2024/03/20 09:40:22;;;;;;;15.30;13.48;;;;;;;16.57;100.00;101821.34;5246100;28;20040;-81
2024/03/20 09:42:54;;;;;;;15.80;14.25;;;;;;;16.57;100.00;101816.06;5247085;28;20449;-81
2024/03/20 09:45:26;;;;;;;19.13;13.65;;;;;;;16.77;100.00;101809.72;5245995;28;20406;-81
2024/03/20 09:47:59;;;;;;;14.27;12.82;;;;;;;16.80;100.00;101815.72;5247366;28;20046;-81
2024/03/20 09:50:32;;;;;;;15.00;13.48;;;;;;;16.91;97.88;101810.22;5246844;28;20316;-81
2024/03/20 09:53:08;;;;;;;15.02;13.40;;;;;;;17.10;99.55;101803.97;5246295;28;20025;-81
2024/03/20 09:55:43;;;;;;;16.50;12.90;;;;;;;17.18;98.83;101812.81;5247738;28;20185;-82
2024/03/20 09:58:15;;;;;;;14.77;12.10;;;;;;;17.23;94.01;101810.56;5243701;28;20035;-81
2024/03/20 10:00:47;;;;;;;15.65;12.35;;;;;;;17.31;94.38;101806.31;5245893;28;20036;-82
2024/03/20 10:03:19;;;;;;;13.40;11.98;;;;;;;17.43;90.87;101813.91;5246600;28;20032;-81
2024/03/20 10:05:52;;;;;;;14.48;12.95;;;;;;;17.46;92.91;101804.81;5246273;28;20072;-82
2024/03/20 10:08:23;;;;;;;14.90;13.07;;;;;;;17.69;91.82;101807.81;5245938;28;20502;-81
2024/03/20 10:10:56;;;;;;;16.38;12.13;;;;;;;17.78;85.92;101808.78;5247003;28;20071;-82
2024/03/20 10:13:28;;;;;;;15.20;13.05;;;;;;;17.85;85.36;101794.75;5245786;28;20037;-82
2024/03/20 10:16:09;;;;;;;16.00;12.35;;;;;;;18.05;87.80;101798.03;5246849;28;20045;-81
2024/03/20 10:18:43;;;;;;;19.85;11.95;;;;;;;18.13;84.18;101802.56;5245708;28;20033;-81
2024/03/20 10:21:14;;;;;;;12.52;10.35;;;;;;;18.09;83.38;101790.59;5247609;28;20024;-82
2024/03/20 10:23:46;;;;;;;12.75;10.77;;;;;;;18.17;85.70;101796.78;5243967;28;20036;-82
2024/03/20 10:26:18;;;;;;;9.40;8.40;;;;;;;18.22;82.93;101797.16;5247241;28;20032;-81
2024/03/20 10:28:51;;;;;;;9.32;7.95;;;;;;;18.41;78.87;101792.59;5227276;28;20041;-81
2024/03/20 10:31:24;;;;;;;11.68;8.32;;;;;;;18.51;80.45;101789.81;5247647;28;20039;-82
2024/03/20 10:33:58;;;;;;;9.70;6.97;;;;;;;18.58;77.77;101783.72;5247130;28;20041;-81
2024/03/20 10:36:32;;;;;;;9.77;6.90;;;;;;;18.75;76.75;101789.13;5249741;28;20319;-81
2024/03/20 10:39:04;;;;;;;9.95;7.57;;;;;;;18.80;75.91;101789.47;5250407;28;20816;-81
2024/03/20 10:41:37;;;;;;;9.95;7.60;;;;;;;18.81;75.03;101791.97;5249109;28;20037;-82
2024/03/20 10:44:14;;;;;;;;;;;;;;;19.61;76.15;101786.94;5247227;28;20313;-82
2024/03/20 10:46:49;;;;;;;8.50;6.28;;;;;;;18.84;74.61;101796.97;5249296;28;19912;-82
2024/03/20 10:49:23;;;;;;;9.63;8.32;;;;;;;18.88;76.77;101789.50;5230137;28;21312;-82
2024/03/20 10:51:55;;;;;;;9.23;8.13;;;;;;;18.90;75.84;101777.75;5249498;28;20036;-82
2024/03/20 10:54:27;;;;;;;10.27;7.30;;;;;;;19.02;74.10;101786.22;5233214;28;20037;-82
2024/03/20 10:56:59;;;;;;;10.37;7.47;;;;;;;19.10;74.62;101790.72;5249733;28;20398;-82
2024/03/20 10:59:31;;;;;;;9.95;7.55;;;;;;;19.03;73.63;101784.41;5246658;28;20507;-82
2024/03/20 11:02:08;;;;;;;10.07;7.20;;;;;;;19.21;73.94;101782.44;5249862;28;20423;-82
2024/03/20 11:04:42;;;;;;;10.23;7.57;;;;;;;19.22;73.86;101788.59;5250509;28;20143;-82
2024/03/20 11:07:29;;;;;;;8.35;7.53;;;;;;;19.46;73.69;101785.94;5248427;28;20036;-82
2024/03/20 11:10:14;;;;;;;8.95;8.05;;;;;;;19.27;74.82;101787.09;5248250;28;20041;-82
2024/03/20 11:12:53;;;;;;;8.48;7.68;;;;;;;19.62;72.04;101793.13;5249462;28;20045;-82
2024/03/20 11:15:27;;;;;;;10.55;8.50;;;;;;;19.48;73.52;101797.25;5247316;28;20047;-82
2024/03/20 11:18:00;;;;;;;9.18;8.20;;;;;;;19.54;71.89;101793.09;5248729;28;20035;-82
2024/03/20 11:20:35;;;;;;;10.18;7.93;;;;;;;19.72;72.48;101788.47;5249681;28;20035;-82
2024/03/20 11:23:10;;;;;;;11.43;8.52;;;;;;;19.80;70.83;101784.97;5247575;28;20261;-82
2024/03/20 11:25:42;;;;;;;10.43;8.13;;;;;;;19.86;70.57;101792.28;5231101;28;20143;-82
2024/03/20 11:28:14;;;;;;;9.38;8.38;;;;;;;19.78;71.58;101787.81;5249003;28;20638;-82
2024/03/20 11:30:49;;;;;;;9.33;8.43;;;;;;;20.13;71.65;101794.56;5248944;28;20039;-82
2024/03/20 11:33:21;;;;;;;8.20;7.38;;;;;;;20.16;68.53;101791.56;5249352;28;20271;-82
2024/03/20 11:35:53;;;;;;;9.73;7.57;;;;;;;20.34;67.91;101780.72;5231140;28;20041;-82
2024/03/20 11:38:29;;;;;;;8.43;7.45;;;;;;;20.45;65.20;101781.31;5247739;28;20151;-82